SIA223 YPPH-YMML
Flight info
| Callsign | SIA223 |
|---|---|
| Flight time | N/A |
| Altitude | 37000 |
| Route | MEMUP5/21 MEMUP Y53 RIDLE/N0484F390 Y53 WENDY |
| Aircraft | A359/H-SDE2E3GHIJ3J4J5LM1ORWXY/LB1D1 |
Departure
| Time | N/A |
|---|---|
| Airport | Perth International Airport (YPPH) |
Arrival
| Time | 2026-04-30 08:51 |
|---|---|
| Airport | Melbourne Airport (YMML) |
| Time | Latitude | Longitude | Altitude | Speed | Heading |
|---|---|---|---|---|---|
| 2026-04-30 08:17 | -35.79964 | 128.20820 | 36916 ft | 572 kts | 102° |
| 2026-04-30 08:18 | -35.80974 | 128.25564 | 36915 ft | 572 kts | 102° |
| 2026-04-30 08:18 | -35.82987 | 128.35055 | 36916 ft | 572 kts | 102° |
| 2026-04-30 08:19 | -35.84992 | 128.44551 | 36911 ft | 572 kts | 102° |
| 2026-04-30 08:19 | -35.86989 | 128.54046 | 36913 ft | 572 kts | 102° |
| 2026-04-30 08:20 | -35.88965 | 128.63483 | 36919 ft | 572 kts | 102° |
| 2026-04-30 08:20 | -35.90947 | 128.72985 | 36916 ft | 572 kts | 102° |
| 2026-04-30 08:21 | -35.92918 | 128.82480 | 36917 ft | 571 kts | 102° |
| 2026-04-30 08:21 | -35.99193 | 129.12974 | 36917 ft | 571 kts | 102° |
| 2026-04-30 08:22 | -36.06904 | 129.51046 | 36922 ft | 570 kts | 102° |
| 2026-04-30 08:22 | -36.14477 | 129.89103 | 36921 ft | 569 kts | 102° |
| 2026-04-30 08:23 | -36.21924 | 130.27204 | 36922 ft | 568 kts | 101° |
| 2026-04-30 08:23 | -36.29170 | 130.64957 | 36924 ft | 566 kts | 101° |
| 2026-04-30 08:24 | -36.36344 | 131.03035 | 36929 ft | 565 kts | 101° |
| 2026-04-30 08:24 | -36.43366 | 131.41006 | 36931 ft | 562 kts | 101° |
| 2026-04-30 08:25 | -36.50232 | 131.78880 | 36937 ft | 561 kts | 101° |
| 2026-04-30 08:25 | -36.56926 | 132.16542 | 36940 ft | 560 kts | 100° |
| 2026-04-30 08:26 | -36.63524 | 132.54389 | 36960 ft | 559 kts | 100° |
| 2026-04-30 08:26 | -36.68910 | 132.85857 | 36944 ft | 558 kts | 100° |
| 2026-04-30 08:27 | -36.75271 | 133.23725 | 36965 ft | 557 kts | 100° |
| 2026-04-30 08:27 | -36.81499 | 133.61568 | 36980 ft | 555 kts | 99° |
| 2026-04-30 08:28 | -36.87569 | 133.99242 | 36988 ft | 551 kts | 99° |
| 2026-04-30 08:28 | -36.93485 | 134.36753 | 37000 ft | 548 kts | 99° |
| 2026-04-30 08:29 | -36.99246 | 134.74075 | 37007 ft | 546 kts | 98° |
| 2026-04-30 08:29 | -37.04838 | 135.11112 | 37028 ft | 544 kts | 98° |
| 2026-04-30 08:30 | -37.10366 | 135.48318 | 37025 ft | 543 kts | 98° |
| 2026-04-30 08:30 | -37.15768 | 135.85578 | 37034 ft | 542 kts | 98° |
| 2026-04-30 08:31 | -37.21053 | 136.22885 | 37044 ft | 543 kts | 98° |
| 2026-04-30 08:31 | -37.26215 | 136.60193 | 37052 ft | 542 kts | 97° |
| 2026-04-30 08:32 | -37.31247 | 136.97467 | 37060 ft | 540 kts | 97° |
| 2026-04-30 08:32 | -37.36150 | 137.34697 | 37072 ft | 539 kts | 97° |
| 2026-04-30 08:33 | -37.40906 | 137.71737 | 37081 ft | 539 kts | 97° |
| 2026-04-30 08:33 | -37.45578 | 138.09071 | 37097 ft | 539 kts | 97° |
| 2026-04-30 08:34 | -37.50116 | 138.46449 | 37109 ft | 538 kts | 97° |
| 2026-04-30 08:34 | -37.54418 | 138.83501 | 37116 ft | 536 kts | 97° |
| 2026-04-30 08:35 | -37.58632 | 139.20726 | 37128 ft | 535 kts | 97° |
| 2026-04-30 08:35 | -37.62712 | 139.57840 | 37142 ft | 533 kts | 96° |
| 2026-04-30 08:36 | -37.66661 | 139.94853 | 37149 ft | 531 kts | 96° |
| 2026-04-30 08:36 | -37.70475 | 140.31709 | 37157 ft | 528 kts | 96° |
| 2026-04-30 08:37 | -37.74167 | 140.68535 | 37163 ft | 527 kts | 96° |
| 2026-04-30 08:37 | -37.76245 | 141.05340 | 37174 ft | 524 kts | 91° |
| 2026-04-30 08:38 | -37.77596 | 141.41917 | 37185 ft | 523 kts | 91° |
| 2026-04-30 08:38 | -37.78857 | 141.78577 | 37200 ft | 522 kts | 90° |
| 2026-04-30 08:38 | -37.79446 | 141.96923 | 36977 ft | 519 kts | 90° |
| 2026-04-30 08:39 | -37.80005 | 142.15147 | 35518 ft | 515 kts | 89° |
| 2026-04-30 08:39 | -37.80534 | 142.33400 | 32808 ft | 515 kts | 88° |
| 2026-04-30 08:39 | -37.81018 | 142.51272 | 30730 ft | 501 kts | 87° |
| 2026-04-30 08:39 | -37.81459 | 142.68421 | 28661 ft | 487 kts | 88° |
| 2026-04-30 08:40 | -37.81870 | 142.85279 | 26692 ft | 472 kts | 88° |
| 2026-04-30 08:40 | -37.82247 | 143.01708 | 24745 ft | 460 kts | 89° |
| 2026-04-30 08:40 | -37.82595 | 143.17721 | 22734 ft | 447 kts | 89° |
| 2026-04-30 08:40 | -37.82909 | 143.33173 | 20804 ft | 431 kts | 89° |
| 2026-04-30 08:41 | -37.83193 | 143.48102 | 18902 ft | 418 kts | 89° |
| 2026-04-30 08:41 | -37.83451 | 143.62596 | 16971 ft | 403 kts | 89° |
| 2026-04-30 08:41 | -37.83518 | 143.66497 | 16456 ft | 399 kts | 88° |
| 2026-04-30 08:41 | -37.83576 | 143.69994 | 15997 ft | 395 kts | 88° |
| 2026-04-30 08:42 | -37.83633 | 143.73456 | 15542 ft | 391 kts | 88° |
| 2026-04-30 08:42 | -37.83688 | 143.76884 | 15081 ft | 388 kts | 88° |
| 2026-04-30 08:42 | -37.83742 | 143.80281 | 14646 ft | 384 kts | 88° |
| 2026-04-30 08:42 | -37.83794 | 143.83652 | 14197 ft | 381 kts | 88° |
| 2026-04-30 08:43 | -37.83845 | 143.86981 | 13718 ft | 377 kts | 88° |
| 2026-04-30 08:43 | -37.83894 | 143.90278 | 13262 ft | 372 kts | 88° |
| 2026-04-30 08:43 | -37.83496 | 144.02427 | 11659 ft | 351 kts | 78° |
| 2026-04-30 08:43 | -37.82171 | 144.13783 | 11096 ft | 305 kts | 78° |
| 2026-04-30 08:44 | -37.80928 | 144.24402 | 9555 ft | 300 kts | 78° |
| 2026-04-30 08:44 | -37.79718 | 144.34714 | 8391 ft | 293 kts | 78° |
| 2026-04-30 08:44 | -37.78597 | 144.44709 | 7253 ft | 290 kts | 85° |
| 2026-04-30 08:44 | -37.79730 | 144.54796 | 6068 ft | 288 kts | 96° |
| 2026-04-30 08:45 | -37.80943 | 144.64352 | 5242 ft | 262 kts | 95° |
| 2026-04-30 08:45 | -37.81634 | 144.69848 | 4580 ft | 258 kts | 95° |
| 2026-04-30 08:45 | -37.81927 | 144.72089 | 4295 ft | 258 kts | 98° |
| 2026-04-30 08:45 | -37.82553 | 144.74221 | 4026 ft | 260 kts | 114° |
| 2026-04-30 08:46 | -37.83400 | 144.76245 | 3762 ft | 259 kts | 115° |
| 2026-04-30 08:46 | -37.84150 | 144.78279 | 3522 ft | 249 kts | 102° |
| 2026-04-30 08:46 | -37.84234 | 144.80372 | 3422 ft | 230 kts | 78° |
| 2026-04-30 08:46 | -37.84021 | 144.82305 | 3310 ft | 220 kts | 76° |
| 2026-04-30 08:47 | -37.83776 | 144.84164 | 3201 ft | 207 kts | 73° |
| 2026-04-30 08:47 | -37.83223 | 144.85714 | 3129 ft | 182 kts | 43° |
| 2026-04-30 08:47 | -37.82191 | 144.86472 | 2919 ft | 169 kts | 12° |
| 2026-04-30 08:47 | -37.81031 | 144.86504 | 2721 ft | 168 kts | 349° |
| 2026-04-30 08:48 | -37.79896 | 144.86194 | 2532 ft | 167 kts | 349° |
| 2026-04-30 08:48 | -37.78740 | 144.85993 | 2419 ft | 166 kts | 354° |
| 2026-04-30 08:48 | -37.77631 | 144.85803 | 2193 ft | 155 kts | 351° |
| 2026-04-30 08:48 | -37.76612 | 144.85600 | 1973 ft | 142 kts | 353° |
| 2026-04-30 08:49 | -37.75673 | 144.85427 | 1804 ft | 133 kts | 353° |
| 2026-04-30 08:49 | -37.74755 | 144.85257 | 1628 ft | 134 kts | 353° |
| 2026-04-30 08:49 | -37.73842 | 144.85087 | 1446 ft | 135 kts | 353° |
| 2026-04-30 08:49 | -37.72906 | 144.84911 | 1269 ft | 136 kts | 353° |
| 2026-04-30 08:50 | -37.71956 | 144.84732 | 1086 ft | 139 kts | 354° |
| 2026-04-30 08:50 | -37.70988 | 144.84551 | 892 ft | 141 kts | 353° |
| 2026-04-30 08:50 | -37.70017 | 144.84369 | 718 ft | 140 kts | 353° |
| 2026-04-30 08:50 | -37.69037 | 144.84189 | 548 ft | 152 kts | 353° |
| 2026-04-30 08:51 | -37.68005 | 144.84004 | 370 ft | 148 kts | 353° |
| 2026-04-30 08:51 | -37.67123 | 144.83836 | 398 ft | 108 kts | 353° |
| 2026-04-30 08:51 | -37.66514 | 144.83718 | 412 ft | 56 kts | 353° |
| 2026-04-30 08:51 | -37.66226 | 144.83675 | 414 ft | 10 kts | 11° |
| 2026-04-30 08:52 | -37.66213 | 144.83674 | 414 ft | 0 kts | 354° |
| 2026-04-30 08:52 | -37.66206 | 144.83672 | 415 ft | 3 kts | 344° |
| 2026-04-30 08:52 | -37.66178 | 144.83666 | 411 ft | 6 kts | 353° |
| 2026-04-30 08:52 | -37.66104 | 144.83655 | 415 ft | 15 kts | 353° |
| 2026-04-30 08:53 | -37.65982 | 144.83632 | 418 ft | 20 kts | 351° |
| 2026-04-30 08:53 | -37.65832 | 144.83603 | 423 ft | 24 kts | 351° |
| 2026-04-30 08:53 | -37.65656 | 144.83579 | 425 ft | 27 kts | 14° |
| 2026-04-30 08:53 | -37.65578 | 144.83736 | 427 ft | 21 kts | 81° |
| 2026-04-30 08:54 | -37.65574 | 144.83776 | 431 ft | 0 kts | 83° |
| 2026-04-30 08:55 | -37.65573 | 144.83798 | 436 ft | 7 kts | 86° |
| 2026-04-30 08:55 | -37.65584 | 144.83903 | 424 ft | 17 kts | 112° |
| 2026-04-30 08:55 | -37.65710 | 144.83990 | 416 ft | 26 kts | 170° |
| 2026-04-30 08:56 | -37.65921 | 144.84029 | 413 ft | 35 kts | 172° |
| 2026-04-30 08:56 | -37.66182 | 144.84076 | 412 ft | 40 kts | 172° |
| 2026-04-30 08:56 | -37.66457 | 144.84126 | 410 ft | 40 kts | 171° |
| 2026-04-30 08:56 | -37.66707 | 144.84173 | 409 ft | 37 kts | 172° |
| 2026-04-30 08:57 | -37.66764 | 144.84184 | 407 ft | 0 kts | 172° |
| 2026-04-30 08:57 | -37.66776 | 144.84186 | 407 ft | 4 kts | 172° |
| 2026-04-30 08:57 | -37.66821 | 144.84194 | 405 ft | 9 kts | 172° |
| 2026-04-30 08:57 | -37.66901 | 144.84209 | 401 ft | 14 kts | 172° |
| 2026-04-30 08:58 | -37.67004 | 144.84242 | 398 ft | 14 kts | 135° |
| 2026-04-30 08:58 | -37.67013 | 144.84287 | 395 ft | 1 kts | 66° |
| 2026-04-30 08:58 | -37.67012 | 144.84289 | 395 ft | 0 kts | 65° |
| 2026-04-30 08:58 | -37.67002 | 144.84308 | 396 ft | 6 kts | 52° |
| 2026-04-30 08:59 | -37.66959 | 144.84363 | 400 ft | 6 kts | 44° |
| 2026-04-30 08:59 | -37.66958 | 144.84364 | 400 ft | 0 kts | 44° |